Time;durP1;ratioP1;P1;durP2;ratioP2;P2;SDS_P1;SDS_P2;PMS_P1;PMS_P2;Temp;Humidity;BMP_temperature;BMP_pressure;BME280_temperature;BME280_humidity;BME280_pressure;Samples;Min_cycle;Max_cycle;Signal;HPM_P1;HPM_P2
2023/03/17 00:00:43;;;;;;;4.80;3.60;;;7.50;99.90;;;;;;4960468;28;89868;-29
2023/03/17 00:03:19;;;;;;;4.20;3.25;;;7.50;99.90;;;;;;4960279;28;89589;-30
2023/03/17 00:05:44;;;;;;;3.90;3.22;;;7.50;99.90;;;;;;4960584;28;90616;-31
2023/03/17 00:08:19;;;;;;;4.65;4.00;;;7.50;99.90;;;;;;4960442;28;88878;-31
2023/03/17 00:10:44;;;;;;;3.70;3.40;;;7.50;99.90;;;;;;4960469;28;89356;-33
2023/03/17 00:13:11;;;;;;;6.93;3.85;;;7.50;99.90;;;;;;4960489;28;90142;-29
2023/03/17 00:15:37;;;;;;;4.60;4.25;;;7.40;99.90;;;;;;4943352;28;88867;-29
2023/03/17 00:18:03;;;;;;;5.82;3.92;;;7.50;99.90;;;;;;4960036;28;89515;-30
2023/03/17 00:20:31;;;;;;;4.03;3.17;;;7.50;99.90;;;;;;4960035;28;88485;-30
2023/03/17 00:23:03;;;;;;;;;;;7.50;99.90;;;;;;4960030;28;90252;-30
2023/03/17 00:25:31;;;;;;;7.60;3.55;;;7.50;99.90;;;;;;4961813;28;89792;-31
2023/03/17 00:27:58;;;;;;;5.40;4.20;;;7.40;99.90;;;;;;4959545;28;89823;-31
2023/03/17 00:30:26;;;;;;;5.85;3.85;;;7.40;99.90;;;;;;4966415;28;89954;-31
2023/03/17 00:32:54;;;;;;;5.90;3.78;;;7.50;99.90;;;;;;4965312;28;90004;-29
2023/03/17 00:35:24;;;;;;;;;;;7.40;99.90;;;;;;4972759;28;89821;-29
2023/03/17 00:37:52;;;;;;;4.30;3.95;;;7.40;99.90;;;;;;4960953;28;89434;-28
2023/03/17 00:40:24;;;;;;;4.05;3.63;;;7.40;99.90;;;;;;4960733;28;88801;-31
2023/03/17 00:42:51;;;;;;;5.10;3.70;;;7.40;99.90;;;;;;4959173;28;90084;-29
2023/03/17 00:45:20;;;;;;;4.68;4.15;;;7.40;99.90;;;;;;4960182;28;89174;-29
2023/03/17 00:47:47;;;;;;;6.65;3.88;;;7.40;99.90;;;;;;4962747;28;89844;-28
2023/03/17 00:50:21;;;;;;;6.45;4.05;;;7.30;99.90;;;;;;4968298;28;89982;-29
2023/03/17 00:52:48;;;;;;;3.80;3.45;;;7.30;99.90;;;;;;4972763;28;90523;-30
2023/03/17 00:55:15;;;;;;;4.78;4.28;;;7.30;99.90;;;;;;4959167;28;91392;-29
2023/03/17 00:57:41;;;;;;;4.82;4.32;;;7.30;99.90;;;;;;4958485;28;88949;-29
2023/03/17 01:00:17;;;;;;;4.75;3.85;;;7.30;99.90;;;;;;4959945;28;87774;-31
2023/03/17 01:02:44;;;;;;;4.50;3.72;;;7.30;99.90;;;;;;4959350;28;91028;-28
2023/03/17 01:05:10;;;;;;;4.38;3.97;;;7.30;99.90;;;;;;4959281;28;89078;-31
2023/03/17 01:07:37;;;;;;;4.50;4.10;;;7.30;99.90;;;;;;4959476;28;90376;-29
2023/03/17 01:10:03;;;;;;;6.07;5.28;;;7.30;99.90;;;;;;4959544;28;89139;-31
2023/03/17 01:12:28;;;;;;;4.57;4.18;;;7.30;99.90;;;;;;4959072;28;91523;-33
2023/03/17 01:14:54;;;;;;;8.23;4.18;;;7.30;99.90;;;;;;4959156;28;89848;-29
2023/03/17 01:17:20;;;;;;;5.90;3.83;;;7.30;99.90;;;;;;4958608;28;91086;-28
2023/03/17 01:19:47;;;;;;;7.75;4.95;;;7.30;99.90;;;;;;4959011;28;89329;-29
2023/03/17 01:22:13;;;;;;;7.82;4.65;;;7.20;99.90;;;;;;4959414;28;90995;-28
2023/03/17 01:24:39;;;;;;;5.00;4.50;;;7.20;99.90;;;;;;4958692;28;88911;-30
2023/03/17 01:27:06;;;;;;;4.45;4.03;;;7.20;99.90;;;;;;4959776;28;90071;-31
2023/03/17 01:29:33;;;;;;;6.90;4.22;;;7.20;99.90;;;;;;4972202;28;88668;-30
2023/03/17 01:31:59;;;;;;;5.15;4.40;;;7.20;99.90;;;;;;4958994;28;88155;-30
2023/03/17 01:34:24;;;;;;;6.50;5.00;;;7.10;99.90;;;;;;4959680;28;90714;-31
2023/03/17 01:36:50;;;;;;;6.13;4.35;;;7.10;99.90;;;;;;4958824;28;89414;-31
2023/03/17 01:39:16;;;;;;;4.78;4.38;;;7.00;99.90;;;;;;4959028;28;88678;-32
2023/03/17 01:41:42;;;;;;;4.55;4.15;;;7.10;99.90;;;;;;4972287;28;90134;-28
2023/03/17 01:44:16;;;;;;;5.65;4.15;;;7.00;99.90;;;;;;4958662;28;91915;-28
2023/03/17 01:46:42;;;;;;;5.22;4.68;;;7.10;99.90;;;;;;4959602;28;90446;-27
2023/03/17 01:49:18;;;;;;;7.50;4.72;;;7.00;99.90;;;;;;4958662;28;89261;-29
2023/03/17 01:52:01;;;;;;;8.85;5.90;;;7.00;99.90;;;;;;4958384;28;90671;-33
2023/03/17 01:54:38;;;;;;;6.80;4.50;;;7.00;99.90;;;;;;4941807;28;91688;-30
2023/03/17 01:57:12;;;;;;;7.65;5.25;;;7.00;99.90;;;;;;4962563;28;89673;-30
2023/03/17 01:59:44;;;;;;;6.60;5.22;;;6.90;99.90;;;;;;4962891;28;89296;-29
2023/03/17 02:02:15;;;;;;;8.32;5.38;;;7.00;99.90;;;;;;4964572;28;88269;-31
2023/03/17 02:04:41;;;;;;;5.55;5.00;;;7.00;99.90;;;;;;4954391;28;89425;-33
2023/03/17 02:07:06;;;;;;;8.52;5.05;;;6.90;99.90;;;;;;4962738;28;90328;-32
2023/03/17 02:09:33;;;;;;;4.93;4.10;;;7.00;99.90;;;;;;4961702;28;89706;-28
2023/03/17 02:12:00;;;;;;;6.10;4.40;;;7.00;99.90;;;;;;4961890;28;90802;-31
2023/03/17 02:14:26;;;;;;;6.07;4.68;;;7.00;99.90;;;;;;4961993;28;89776;-29
2023/03/17 02:16:52;;;;;;;6.10;4.95;;;6.90;99.90;;;;;;4964414;28;89298;-31
2023/03/17 02:19:18;;;;;;;6.10;5.20;;;6.90;99.90;;;;;;4972578;28;88604;-29
2023/03/17 02:21:52;;;;;;;7.38;4.30;;;6.90;99.90;;;;;;4961587;28;90141;-30
2023/03/17 02:24:26;;;;;;;6.32;5.40;;;6.90;99.90;;;;;;4961627;28;89375;-33
2023/03/17 02:26:54;;;;;;;4.78;4.32;;;6.90;99.90;;;;;;4974370;28;89540;-31
2023/03/17 02:29:21;;;;;;;6.47;4.30;;;6.90;99.90;;;;;;4973113;28;88320;-31
2023/03/17 02:31:47;;;;;;;5.10;4.03;;;6.90;99.90;;;;;;4967805;28;90650;-28
2023/03/17 02:34:14;;;;;;;6.50;4.38;;;6.90;99.90;;;;;;4981357;28;90900;-28
2023/03/17 02:36:40;;;;;;;5.75;4.75;;;6.90;99.90;;;;;;4975920;28;90009;-30
2023/03/17 02:39:06;;;;;;;5.97;4.72;;;6.90;99.90;;;;;;4962149;28;89347;-29
2023/03/17 02:41:33;;;;;;;7.57;5.40;;;6.80;99.90;;;;;;4961781;28;90401;-28
2023/03/17 02:43:59;;;;;;;6.07;4.80;;;6.80;99.90;;;;;;4960856;28;89757;-30
2023/03/17 02:46:25;;;;;;;12.40;4.78;;;6.80;99.90;;;;;;4974840;28;88725;-29
2023/03/17 02:48:52;;;;;;;4.72;3.90;;;6.90;99.90;;;;;;4961488;28;88486;-29
2023/03/17 02:51:18;;;;;;;5.80;4.00;;;6.80;99.90;;;;;;4960531;28;91135;-28
2023/03/17 02:53:43;;;;;;;5.78;5.18;;;6.90;99.90;;;;;;4961677;28;89665;-28
2023/03/17 02:56:09;;;;;;;6.78;4.72;;;6.80;99.90;;;;;;4961022;28;89858;-29
2023/03/17 02:58:35;;;;;;;7.47;5.63;;;6.80;99.90;;;;;;4960705;28;91082;-32
2023/03/17 03:01:01;;;;;;;5.03;4.53;;;6.80;99.90;;;;;;4973537;28;90270;-28
2023/03/17 03:03:27;;;;;;;7.07;4.80;;;6.80;99.90;;;;;;4961212;28;89686;-30
2023/03/17 03:05:52;;;;;;;5.63;4.47;;;6.80;99.90;;;;;;4959912;28;89062;-30
2023/03/17 03:08:19;;;;;;;6.30;4.20;;;6.80;99.90;;;;;;4961126;28;89929;-28
2023/03/17 03:10:45;;;;;;;5.00;4.50;;;6.70;99.90;;;;;;4961029;28;90293;-30
2023/03/17 03:13:11;;;;;;;6.45;4.88;;;6.70;99.90;;;;;;4961256;28;89727;-28
2023/03/17 03:15:39;;;;;;;8.63;5.03;;;6.70;99.90;;;;;;4960894;28;90083;-27
2023/03/17 03:18:05;;;;;;;4.90;4.50;;;6.70;99.90;;;;;;4960981;28;88989;-31
2023/03/17 03:20:31;;;;;;;4.38;3.78;;;6.70;99.90;;;;;;4973463;28;89979;-31
2023/03/17 03:22:56;;;;;;;6.32;4.93;;;6.80;99.90;;;;;;4960146;28;90473;-31
2023/03/17 03:25:22;;;;;;;6.05;4.75;;;6.80;99.90;;;;;;4960625;28;90151;-31
2023/03/17 03:27:48;;;;;;;4.75;4.32;;;6.80;99.90;;;;;;4961086;28;88447;-29
2023/03/17 03:30:13;;;;;;;5.72;5.00;;;6.80;99.90;;;;;;4973590;28;90628;-28
2023/03/17 03:32:39;;;;;;;8.90;4.68;;;6.80;99.90;;;;;;4961280;28;90029;-34
2023/03/17 03:35:07;;;;;;;6.30;4.88;;;6.80;99.90;;;;;;4960207;28;89026;-28
2023/03/17 03:37:32;;;;;;;7.47;5.70;;;6.70;99.90;;;;;;4961014;28;89129;-31
2023/03/17 03:39:58;;;;;;;7.18;5.18;;;6.70;99.90;;;;;;4959958;28;90266;-32
2023/03/17 03:42:23;;;;;;;5.70;4.28;;;6.70;99.90;;;;;;4972392;28;89875;-30
2023/03/17 03:44:49;;;;;;;5.10;4.50;;;6.80;99.90;;;;;;4966793;28;90158;-29
2023/03/17 03:47:15;;;;;;;7.18;4.88;;;6.80;99.90;;;;;;4967802;28;90328;-28
2023/03/17 03:49:40;;;;;;;5.72;4.53;;;6.80;99.90;;;;;;4973454;28;90510;-31
2023/03/17 03:52:06;;;;;;;5.70;5.13;;;6.80;99.90;;;;;;4959755;28;89696;-30
2023/03/17 03:54:32;;;;;;;6.38;4.35;;;6.80;99.90;;;;;;4959880;28;89577;-31
2023/03/17 03:56:57;;;;;;;5.03;4.53;;;6.70;99.90;;;;;;4960704;28;88913;-29
2023/03/17 03:59:23;;;;;;;4.30;3.97;;;6.70;99.90;;;;;;4959759;28;91525;-31
2023/03/17 04:01:49;;;;;;;6.18;4.60;;;6.70;99.90;;;;;;4960492;28;89756;-30
2023/03/17 04:04:15;;;;;;;5.97;4.30;;;6.70;99.90;;;;;;4959840;28;89330;-30
2023/03/17 04:06:40;;;;;;;5.20;4.70;;;6.70;99.90;;;;;;4961866;28;90222;-30
2023/03/17 04:09:06;;;;;;;6.97;5.32;;;6.70;99.90;;;;;;4960228;28;90767;-30
2023/03/17 04:11:32;;;;;;;7.10;3.95;;;6.70;99.90;;;;;;4959889;28;90681;-29
2023/03/17 04:13:57;;;;;;;6.43;4.88;;;6.70;99.90;;;;;;4960608;28;90427;-29
2023/03/17 04:16:23;;;;;;;5.97;4.80;;;6.70;99.90;;;;;;4959776;28;90160;-29
2023/03/17 04:18:48;;;;;;;6.00;4.95;;;6.70;99.90;;;;;;4960467;28;89734;-30
2023/03/17 04:21:17;;;;;;;6.05;4.40;;;6.60;99.90;;;;;;4959766;28;89716;-30
2023/03/17 04:23:44;;;;;;;6.32;5.45;;;6.70;99.90;;;;;;4959374;28;89993;-31
2023/03/17 04:26:11;;;;;;;5.82;4.88;;;6.60;99.90;;;;;;4960425;28;88759;-29
2023/03/17 04:28:36;;;;;;;6.03;4.25;;;6.60;99.90;;;;;;4960858;28;90273;-29
2023/03/17 04:31:02;;;;;;;5.53;4.35;;;6.60;99.90;;;;;;4959758;28;89843;-31
2023/03/17 04:33:28;;;;;;;4.78;4.38;;;6.60;99.90;;;;;;4973128;28;89904;-30
2023/03/17 04:35:53;;;;;;;6.40;4.28;;;6.60;99.90;;;;;;4958889;28;89914;-30
2023/03/17 04:38:19;;;;;;;5.43;4.25;;;6.50;99.90;;;;;;4959446;28;89567;-33
2023/03/17 04:40:45;;;;;;;4.78;4.38;;;6.50;99.90;;;;;;4971097;28;89857;-30
2023/03/17 04:43:11;;;;;;;6.47;5.07;;;6.50;99.90;;;;;;4959620;28;89365;-29
2023/03/17 04:45:37;;;;;;;7.28;5.22;;;6.50;99.90;;;;;;4971562;28;88041;-30
2023/03/17 04:48:03;;;;;;;7.82;6.25;;;6.50;99.90;;;;;;4959602;28;90350;-30
2023/03/17 04:50:28;;;;;;;5.20;4.60;;;6.50;99.90;;;;;;4970394;28;90081;-31
2023/03/17 04:52:54;;;;;;;4.65;4.25;;;6.50;99.90;;;;;;4963657;28;89874;-31
2023/03/17 04:55:20;;;;;;;5.32;4.50;;;6.50;99.90;;;;;;4965561;28;89272;-28
2023/03/17 04:57:46;;;;;;;6.53;3.78;;;6.50;99.90;;;;;;4957979;28;89662;-31
2023/03/17 05:00:14;;;;;;;8.95;5.00;;;6.50;99.90;;;;;;4957422;28;90188;-29
2023/03/17 05:02:40;;;;;;;5.78;4.80;;;6.50;99.90;;;;;;4957881;28;89732;-32
2023/03/17 05:05:05;;;;;;;4.97;4.50;;;6.50;99.90;;;;;;4958920;28;88090;-29
2023/03/17 05:07:31;;;;;;;5.47;4.60;;;6.50;99.90;;;;;;4957949;28;91098;-31
2023/03/17 05:09:56;;;;;;;4.90;4.47;;;6.50;99.90;;;;;;4957735;28;89632;-30
2023/03/17 05:12:22;;;;;;;4.90;4.40;;;6.50;99.90;;;;;;4963263;28;89905;-28
2023/03/17 05:14:48;;;;;;;7.97;4.88;;;6.50;99.90;;;;;;4964921;28;89982;-31
2023/03/17 05:17:14;;;;;;;5.55;4.55;;;6.50;99.90;;;;;;4958581;28;90746;-31
2023/03/17 05:19:39;;;;;;;6.30;4.10;;;6.50;99.90;;;;;;4957154;28;89453;-34
2023/03/17 05:22:05;;;;;;;5.43;4.28;;;6.40;99.90;;;;;;4957721;28;90250;-31
2023/03/17 05:24:31;;;;;;;5.97;4.70;;;6.40;99.90;;;;;;4957642;28;91175;-28
2023/03/17 05:26:56;;;;;;;5.57;4.05;;;6.40;99.90;;;;;;4957517;28;90249;-32
2023/03/17 05:29:22;;;;;;;8.32;4.00;;;6.50;99.90;;;;;;4970536;28;89494;-29
2023/03/17 05:31:48;;;;;;;6.10;4.28;;;6.40;99.90;;;;;;4945003;28;90387;-30
2023/03/17 05:34:14;;;;;;;8.70;4.55;;;6.40;99.90;;;;;;4973743;28;87707;-32
2023/03/17 05:36:40;;;;;;;5.22;4.78;;;6.40;99.90;;;;;;4962824;28;90093;-30
2023/03/17 05:39:06;;;;;;;6.95;5.13;;;6.40;99.90;;;;;;4966236;28;88730;-33
2023/03/17 05:41:32;;;;;;;5.78;4.20;;;6.40;99.90;;;;;;4962312;28;90610;-30
2023/03/17 05:43:58;;;;;;;6.28;4.95;;;6.50;99.90;;;;;;4961386;28;90196;-29
2023/03/17 05:46:23;;;;;;;6.38;4.03;;;6.40;99.90;;;;;;4961588;28;90232;-31
2023/03/17 05:48:49;;;;;;;6.10;4.63;;;6.40;99.90;;;;;;4960997;28;90504;-29
2023/03/17 05:51:15;;;;;;;8.18;4.18;;;6.40;99.90;;;;;;4921762;28;1146377;-33
2023/03/17 05:53:41;;;;;;;4.55;4.07;;;6.40;99.90;;;;;;4962856;28;89495;-30
2023/03/17 05:56:08;;;;;;;4.10;3.67;;;6.50;99.90;;;;;;4960947;28;89951;-30
2023/03/17 05:58:33;;;;;;;4.07;3.67;;;6.50;99.90;;;;;;4962382;28;89277;-31
2023/03/17 06:00:59;;;;;;;8.98;4.53;;;6.50;99.90;;;;;;4966451;28;89371;-30
2023/03/17 06:03:25;;;;;;;4.13;3.05;;;6.60;99.90;;;;;;4970440;28;88640;-30
2023/03/17 06:05:52;;;;;;;4.65;3.72;;;6.70;99.90;;;;;;4975254;28;90050;-30
2023/03/17 06:08:18;;;;;;;6.15;4.22;;;6.70;99.90;;;;;;4961690;28;89668;-32
2023/03/17 06:10:43;;;;;;;6.40;4.13;;;6.70;99.90;;;;;;4961721;28;88686;-28
2023/03/17 06:13:09;;;;;;;5.93;4.63;;;6.70;99.90;;;;;;4962529;28;89931;-29
2023/03/17 06:15:35;;;;;;;5.00;3.95;;;6.80;99.90;;;;;;4961051;28;89795;-32
2023/03/17 06:18:03;;;;;;;5.00;4.28;;;6.80;99.90;;;;;;4961575;28;89014;-31
2023/03/17 06:20:33;;;;;;;5.13;4.63;;;6.80;99.90;;;;;;4961460;28;89303;-28
2023/03/17 06:22:59;;;;;;;5.07;4.07;;;6.90;99.90;;;;;;4962078;28;89297;-30
2023/03/17 06:25:25;;;;;;;5.90;3.70;;;6.90;99.90;;;;;;4961362;28;90184;-28
2023/03/17 06:27:53;;;;;;;5.70;3.83;;;7.00;99.90;;;;;;4961810;28;88687;-32
2023/03/17 06:30:20;;;;;;;4.13;3.50;;;7.00;99.90;;;;;;4975449;28;88211;-30
2023/03/17 06:32:47;;;;;;;4.90;4.13;;;7.10;99.90;;;;;;4961787;28;89118;-29
2023/03/17 06:35:12;;;;;;;5.03;3.60;;;7.20;99.90;;;;;;4961752;28;89543;-29
2023/03/17 06:37:38;;;;;;;5.97;3.80;;;7.30;99.90;;;;;;4961999;28;91048;-28
2023/03/17 06:40:08;;;;;;;5.25;4.38;;;7.50;99.90;;;;;;4960894;28;90274;-29
2023/03/17 06:42:35;;;;;;;3.67;3.38;;;7.60;99.90;;;;;;4961967;28;89492;-30
2023/03/17 06:45:01;;;;;;;4.82;4.10;;;7.60;99.90;;;;;;4961210;28;90203;-29
2023/03/17 06:47:27;;;;;;;4.10;3.70;;;7.80;99.90;;;;;;4961463;28;90044;-31
2023/03/17 06:49:53;;;;;;;4.38;3.55;;;7.90;99.90;;;;;;4968249;28;89621;-28
2023/03/17 06:52:18;;;;;;;4.78;4.28;;;8.00;99.90;;;;;;4967130;28;87659;-31
2023/03/17 06:54:44;;;;;;;4.57;3.05;;;8.20;99.90;;;;;;4961127;28;91178;-29
2023/03/17 06:57:11;;;;;;;4.03;3.63;;;8.30;99.90;;;;;;4961561;28;89787;-28
2023/03/17 06:59:36;;;;;;;3.85;3.47;;;8.30;99.90;;;;;;4961558;28;91173;-31
2023/03/17 07:02:02;;;;;;;5.13;3.85;;;8.40;99.90;;;;;;4960045;28;88885;-27
2023/03/17 07:04:28;;;;;;;4.55;3.08;;;8.40;99.90;;;;;;4961971;28;90133;-29
2023/03/17 07:06:53;;;;;;;4.22;3.42;;;8.50;99.90;;;;;;4960474;28;89604;-32
2023/03/17 07:09:19;;;;;;;5.15;3.35;;;8.70;99.90;;;;;;4961026;28;89273;-29
2023/03/17 07:11:45;;;;;;;3.92;3.17;;;8.70;99.90;;;;;;4960781;28;88862;-30
2023/03/17 07:14:11;;;;;;;4.63;4.20;;;8.70;99.90;;;;;;4960472;28;89499;-32
2023/03/17 07:16:36;;;;;;;4.80;4.05;;;8.90;99.90;;;;;;4960670;28;89713;-29
2023/03/17 07:19:02;;;;;;;5.95;4.40;;;8.90;99.90;;;;;;4960690;28;89978;-29
2023/03/17 07:21:28;;;;;;;4.90;3.60;;;9.10;99.90;;;;;;4960760;28;89444;-32
2023/03/17 07:23:53;;;;;;;7.97;3.85;;;9.20;99.90;;;;;;4960689;28;90279;-30
2023/03/17 07:26:20;;;;;;;5.30;4.13;;;9.30;99.90;;;;;;4959699;28;90653;-28
2023/03/17 07:28:45;;;;;;;4.07;3.20;;;9.30;99.90;;;;;;4972523;28;90304;-30
2023/03/17 07:31:13;;;;;;;7.05;4.22;;;9.30;99.90;;;;;;4973672;28;88995;-31
2023/03/17 07:33:39;;;;;;;6.97;4.47;;;9.30;99.90;;;;;;4963283;28;90415;-30
2023/03/17 07:36:06;;;;;;;5.00;3.35;;;9.40;99.90;;;;;;4960916;28;89635;-31
2023/03/17 07:38:32;;;;;;;3.88;3.38;;;9.50;99.90;;;;;;4963516;28;89242;-30
2023/03/17 07:40:58;;;;;;;5.93;4.07;;;9.60;99.90;;;;;;4963877;28;89234;-33
2023/03/17 07:43:24;;;;;;;4.57;4.10;;;9.60;99.90;;;;;;4961143;28;89960;-28
2023/03/17 07:45:50;;;;;;;6.90;3.85;;;9.60;99.90;;;;;;4960015;28;88218;-29
2023/03/17 07:48:16;;;;;;;4.93;4.50;;;9.60;99.90;;;;;;4960619;28;89153;-30
2023/03/17 07:50:43;;;;;;;6.20;4.25;;;9.70;99.90;;;;;;4959358;28;88580;-28
2023/03/17 07:53:09;;;;;;;8.77;3.95;;;9.70;99.90;;;;;;4958699;28;90339;-30
2023/03/17 07:55:35;;;;;;;4.53;4.10;;;9.90;99.90;;;;;;4960777;28;90011;-32
2023/03/17 07:58:01;;;;;;;6.25;4.93;;;10.00;99.90;;;;;;4969898;28;89053;-32
2023/03/17 08:00:27;;;;;;;4.82;3.85;;;10.10;99.90;;;;;;4959728;28;88341;-31
2023/03/17 08:02:54;;;;;;;5.03;3.88;;;10.20;99.90;;;;;;4960357;28;89048;-29
2023/03/17 08:05:20;;;;;;;4.68;4.28;;;10.40;99.90;;;;;;4959400;28;90327;-31
2023/03/17 08:07:46;;;;;;;6.00;4.95;;;10.40;99.90;;;;;;4964133;28;90206;-33
2023/03/17 08:10:12;;;;;;;4.53;4.07;;;10.40;99.90;;;;;;4965887;28;88732;-30
2023/03/17 08:12:38;;;;;;;4.82;4.05;;;10.50;99.90;;;;;;4959814;28;90134;-30
2023/03/17 08:15:05;;;;;;;7.97;4.25;;;10.50;99.90;;;;;;4959711;28;90023;-32
2023/03/17 08:17:31;;;;;;;6.43;4.97;;;10.50;99.90;;;;;;4959601;28;90510;-31
2023/03/17 08:19:57;;;;;;;4.00;3.67;;;10.50;99.90;;;;;;4958989;28;88386;-31
2023/03/17 08:22:23;;;;;;;6.75;4.28;;;10.60;99.90;;;;;;4960302;28;90106;-30
2023/03/17 08:24:49;;;;;;;5.45;4.70;;;10.70;99.90;;;;;;4960132;28;89428;-30
2023/03/17 08:27:15;;;;;;;5.43;3.95;;;10.90;99.90;;;;;;4969531;28;89360;-31
2023/03/17 08:29:41;;;;;;;7.30;4.45;;;11.10;99.90;;;;;;4972381;28;89148;-31
2023/03/17 08:32:08;;;;;;;5.05;4.63;;;11.30;99.90;;;;;;4978910;28;90299;-30
2023/03/17 08:34:34;;;;;;;9.80;5.38;;;11.40;99.90;;;;;;4964633;28;89428;-29
2023/03/17 08:37:00;;;;;;;5.35;4.13;;;11.50;99.90;;;;;;4958914;28;90824;-30
2023/03/17 08:39:26;;;;;;;5.72;4.32;;;11.70;99.90;;;;;;4959137;28;88084;-30
2023/03/17 08:41:52;;;;;;;5.22;4.18;;;11.70;97.20;;;;;;4958847;28;90208;-28
2023/03/17 08:44:19;;;;;;;5.90;4.20;;;11.80;99.90;;;;;;4958596;28;89819;-29
2023/03/17 08:46:45;;;;;;;6.63;4.25;;;11.90;99.90;;;;;;4957436;28;89651;-32
2023/03/17 08:49:12;;;;;;;6.22;4.38;;;11.80;99.90;;;;;;4956719;28;89017;-30
2023/03/17 08:51:38;;;;;;;5.15;4.47;;;11.70;93.00;;;;;;4955561;28;89891;-31
2023/03/17 08:54:05;;;;;;;5.70;4.03;;;11.70;99.30;;;;;;4967855;28;89371;-30
2023/03/17 08:56:31;;;;;;;5.43;4.18;;;11.70;98.60;;;;;;4957074;28;90269;-29
2023/03/17 08:58:57;;;;;;;6.28;4.70;;;11.80;95.00;;;;;;4956981;28;88906;-32
2023/03/17 09:01:23;;;;;;;7.25;3.92;;;11.80;98.30;;;;;;4967953;28;90920;-31
2023/03/17 09:03:52;;;;;;;6.85;4.80;;;11.80;99.90;;;;;;4967825;28;90638;-29
2023/03/17 09:06:18;;;;;;;8.57;4.78;;;11.90;99.90;;;;;;4956888;28;89802;-30
2023/03/17 09:08:46;;;;;;;6.85;4.78;;;11.80;96.20;;;;;;4955786;28;88827;-31
2023/03/17 09:11:17;;;;;;;5.82;4.53;;;11.80;99.90;;;;;;4959293;28;88781;-32
2023/03/17 09:13:45;;;;;;;6.65;5.03;;;12.00;98.50;;;;;;4956042;28;89985;-31
2023/03/17 09:16:11;;;;;;;7.27;5.43;;;12.30;99.90;;;;;;4957426;28;89050;-29
2023/03/17 09:18:38;;;;;;;6.20;4.63;;;12.40;98.50;;;;;;4957017;28;89861;-29
2023/03/17 09:21:04;;;;;;;5.63;4.55;;;12.50;97.30;;;;;;4956340;28;90086;-29
2023/03/17 09:23:31;;;;;;;5.70;4.53;;;12.50;91.30;;;;;;4940705;28;90100;-28
2023/03/17 09:25:57;;;;;;;7.10;4.15;;;12.60;93.60;;;;;;4957145;28;89315;-28
2023/03/17 09:28:23;;;;;;;8.15;4.68;;;12.60;93.90;;;;;;4959521;28;90373;-28
2023/03/17 09:30:49;;;;;;;6.18;5.22;;;12.60;92.70;;;;;;4966601;28;90356;-32
2023/03/17 09:33:16;;;;;;;6.05;4.72;;;12.80;93.90;;;;;;4956723;28;89784;-30
2023/03/17 09:35:42;;;;;;;6.90;6.17;;;13.10;94.80;;;;;;4956064;28;89650;-30
2023/03/17 09:38:09;;;;;;;7.80;5.47;;;13.40;93.40;;;;;;4957069;28;87604;-29
2023/03/17 09:41:01;;;;;;;7.20;4.43;;;13.50;88.90;;;;;;4956658;28;89912;-29
2023/03/17 09:43:39;;;;;;;5.28;4.78;;;13.50;83.20;;;;;;4957798;28;89403;-32
2023/03/17 09:46:41;;;;;;;16.17;5.03;;;13.80;87.80;;;;;;4956865;28;90415;-29
2023/03/17 09:49:11;;;;;;;6.70;6.03;;;13.90;82.50;;;;;;4956599;28;88950;-28
2023/03/17 09:51:37;;;;;;;5.10;4.60;;;14.20;86.80;;;;;;4955510;28;89803;-31
2023/03/17 09:54:26;;;;;;;10.68;5.82;;;14.40;86.40;;;;;;4957767;28;90716;-33
2023/03/17 09:57:23;;;;;;;6.20;4.68;;;14.80;87.30;;;;;;4964321;28;89846;-31
2023/03/17 10:00:05;;;;;;;5.80;4.68;;;14.90;79.30;;;;;;4955745;28;89634;-32
2023/03/17 10:02:36;;;;;;;5.95;5.13;;;14.60;79.70;;;;;;4955609;28;90617;-30
2023/03/17 10:05:20;;;;;;;7.85;5.43;;;14.50;81.10;;;;;;4956146;28;89495;-31
2023/03/17 10:08:23;;;;;;;7.03;5.18;;;14.50;80.60;;;;;;4956380;28;88480;-30
2023/03/17 10:11:19;;;;;;;6.10;4.85;;;14.60;81.50;;;;;;4968973;28;88922;-29
2023/03/17 10:14:03;;;;;;;13.18;5.55;;;14.50;80.90;;;;;;4960033;28;90479;-30
2023/03/17 10:16:59;;;;;;;7.05;6.38;;;14.80;78.70;;;;;;4964124;28;88423;-33
2023/03/17 10:19:47;;;;;;;10.43;6.10;;;14.70;79.30;;;;;;4959870;28;89552;-29
2023/03/17 10:22:16;;;;;;;6.53;5.90;;;14.70;77.90;;;;;;4945194;28;88736;-30
2023/03/17 10:24:49;;;;;;;6.57;5.45;;;14.90;79.30;;;;;;4959783;28;90327;-29
2023/03/17 10:27:16;;;;;;;7.38;6.03;;;15.30;80.40;;;;;;4969780;28;88678;-32
2023/03/17 10:29:42;;;;;;;9.40;6.68;;;15.20;79.30;;;;;;4959947;28;89737;-29
2023/03/17 10:32:12;;;;;;;6.93;6.10;;;15.40;76.60;;;;;;4959174;28;88020;-31
2023/03/17 10:34:40;;;;;;;9.45;6.07;;;15.60;77.90;;;;;;4959021;28;89198;-31
2023/03/17 10:37:16;;;;;;;6.90;5.70;;;15.60;76.70;;;;;;4959054;28;88682;-31
2023/03/17 10:39:48;;;;;;;10.45;6.30;;;15.40;76.90;;;;;;4962035;28;89555;-30
2023/03/17 10:42:24;;;;;;;7.28;5.32;;;15.40;76.60;;;;;;4968271;28;89744;-33
2023/03/17 10:45:00;;;;;;;6.50;5.80;;;15.40;78.10;;;;;;4959135;28;90611;-32
2023/03/17 10:47:36;;;;;;;7.90;5.93;;;15.70;78.00;;;;;;4971978;28;90343;-30
2023/03/17 10:50:20;;;;;;;10.32;6.13;;;15.50;76.50;;;;;;4958084;28;90345;-32
2023/03/17 10:52:47;;;;;;;6.10;5.50;;;15.70;78.90;;;;;;4959078;28;88640;-32
2023/03/17 10:55:21;;;;;;;7.70;5.67;;;15.70;77.70;;;;;;4959180;28;90651;-29
2023/03/17 10:58:30;;;;;;;9.30;6.97;;;15.70;78.00;;;;;;4958579;28;90702;-32
2023/03/17 11:01:06;;;;;;;8.18;6.50;;;15.80;79.30;;;;;;4958667;28;89455;-31
2023/03/17 11:03:37;;;;;;;10.65;6.35;;;15.50;80.20;;;;;;4959383;28;90135;-32
2023/03/17 11:06:10;;;;;;;6.20;5.45;;;15.70;78.40;;;;;;4958695;28;89481;-32
2023/03/17 11:08:49;;;;;;;7.95;6.80;;;15.60;78.60;;;;;;4958339;28;89732;-32
2023/03/17 11:11:28;;;;;;;10.73;6.82;;;15.40;78.70;;;;;;4958760;28;89920;-30
2023/03/17 11:14:02;;;;;;;7.13;6.43;;;15.40;80.00;;;;;;4958493;28;89597;-29
2023/03/17 11:16:27;;;;;;;7.68;5.38;;;15.50;81.30;;;;;;4958568;28;90339;-33
2023/03/17 11:18:59;;;;;;;9.55;7.57;;;15.60;83.60;;;;;;4957063;28;89870;-31
2023/03/17 11:21:31;;;;;;;8.15;6.80;;;15.70;81.20;;;;;;4959459;28;91171;-32
2023/03/17 11:24:07;;;;;;;10.43;6.72;;;15.80;81.50;;;;;;4958875;28;88160;-29
2023/03/17 11:26:45;;;;;;;9.43;5.78;;;15.80;82.60;;;;;;4957732;28;91414;-31
2023/03/17 11:29:41;;;;;;;9.13;6.85;;;16.00;82.80;;;;;;4967223;28;89332;-33
2023/03/17 11:32:15;;;;;;;8.60;7.30;;;16.10;79.10;;;;;;4958280;28;89955;-31
2023/03/17 11:35:15;;;;;;;8.38;6.72;;;16.20;75.70;;;;;;4958245;28;88819;-32
2023/03/17 11:37:53;;;;;;;7.60;6.45;;;16.30;76.20;;;;;;4957792;28;90185;-33
2023/03/17 11:40:30;;;;;;;7.75;6.85;;;16.50;76.90;;;;;;4956951;28;90714;-32
2023/03/17 11:43:48;;;;;;;7.05;6.18;;;16.60;75.10;;;;;;4957866;28;90840;-30
2023/03/17 11:46:41;;;;;;;11.15;6.28;;;16.50;74.40;;;;;;4937011;28;89603;-30
2023/03/17 11:49:17;;;;;;;9.52;7.93;;;16.70;74.90;;;;;;4956721;28;90357;-29
2023/03/17 11:51:49;;;;;;;7.88;6.18;;;16.80;73.50;;;;;;4969833;22;90540;-30
2023/03/17 11:54:51;;;;;;;9.40;6.03;;;16.90;74.40;;;;;;4937350;28;91938;-33
2023/03/17 11:57:39;;;;;;;17.95;7.68;;;16.90;73.30;;;;;;4872290;28;89198;-30
2023/03/17 12:00:25;;;;;;;6.82;5.60;;;16.70;74.20;;;;;;4941614;28;90297;-33
2023/03/17 12:02:56;;;;;;;8.82;6.72;;;16.80;77.20;;;;;;4937601;28;89736;-28
2023/03/17 12:05:25;;;;;;;9.45;7.50;;;16.70;74.90;;;;;;4938278;28;88681;-31
2023/03/17 12:08:00;;;;;;;7.57;6.38;;;16.50;75.20;;;;;;4937352;28;90103;-31
2023/03/17 12:10:44;;;;;;;8.43;6.32;;;16.60;76.90;;;;;;4937286;28;90235;-31
2023/03/17 12:13:23;;;;;;;14.90;8.27;;;16.60;76.60;;;;;;4937959;28;89508;-31
2023/03/17 12:16:09;;;;;;;10.75;7.20;;;16.50;75.60;;;;;;4942676;28;89610;-31
2023/03/17 12:18:35;;;;;;;10.10;6.50;;;16.30;77.20;;;;;;4942822;28;88967;-33
2023/03/17 12:21:21;;;;;;;7.22;6.57;;;16.30;75.30;;;;;;4937656;28;89446;-32
2023/03/17 12:23:48;;;;;;;9.82;7.40;;;16.50;77.50;;;;;;4937913;28;89660;-33
2023/03/17 12:26:19;;;;;;;10.18;7.93;;;16.50;76.70;;;;;;4937957;28;88911;-31
2023/03/17 12:28:57;;;;;;;7.95;7.05;;;16.30;75.40;;;;;;4954962;28;88691;-31
2023/03/17 12:31:31;;;;;;;9.00;6.82;;;16.30;77.90;;;;;;4942114;28;90433;-32
2023/03/17 12:34:10;;;;;;;8.73;6.47;;;16.40;76.50;;;;;;4946401;28;91197;-33
2023/03/17 12:36:39;;;;;;;9.63;6.55;;;16.30;76.30;;;;;;4939421;28;91002;-33
2023/03/17 12:39:17;;;;;;;7.53;6.28;;;16.30;76.40;;;;;;4935547;28;90532;-31
2023/03/17 12:42:10;;;;;;;7.53;6.80;;;16.10;75.70;;;;;;4937876;28;91144;-32
2023/03/17 12:44:52;;;;;;;13.32;7.18;;;15.90;75.80;;;;;;4938172;28;88748;-30
2023/03/17 12:47:41;;;;;;;8.95;6.45;;;15.90;76.20;;;;;;4937783;28;89529;-32
2023/03/17 12:50:31;;;;;;;9.95;6.57;;;15.90;78.20;;;;;;4908553;28;87721;-30
2023/03/17 12:52:56;;;;;;;8.10;7.28;;;15.90;77.80;;;;;;4937824;28;90279;-31
2023/03/17 12:55:25;;;;;;;10.25;6.78;;;15.70;78.60;;;;;;4938002;28;90789;-31
2023/03/17 12:58:31;;;;;;;7.53;6.80;;;15.90;80.50;;;;;;4937031;28;89864;-32
2023/03/17 13:01:41;;;;;;;10.10;7.75;;;16.00;83.90;;;;;;4936545;28;89095;-30
2023/03/17 13:04:31;;;;;;;11.98;7.93;;;15.90;79.50;;;;;;4917670;28;89862;-31
2023/03/17 13:07:11;;;;;;;7.93;6.07;;;15.90;83.80;;;;;;4937052;28;89864;-32